Time,TemperatureF,DewpointF,PressureIn,WindDirection,WindDirectionDegrees,WindSpeedMPH,WindSpeedGustMPH,Humidity,HourlyPrecipIn,Conditions,Clouds,dailyrainin,SoftwareType,DateUTC
2013-04-29 00:05:00,71.2,62.0,29.89,SSE,157,4.0,6.0,72,0.00,,,0.00,weatherlink.com 1.10,2013-04-29 05:05:00,
2013-04-29 00:20:00,71.2,62.0,29.88,SE,127,6.0,9.0,72,0.00,,,0.00,weatherlink.com 1.10,2013-04-29 05:20:00,
2013-04-29 00:35:00,70.9,61.0,29.88,SSE,152,4.0,8.0,72,0.00,,,0.00,weatherlink.com 1.10,2013-04-29 05:35:00,
2013-04-29 00:50:00,70.8,61.0,29.88,South,190,4.0,12.0,72,0.00,,,0.00,weatherlink.com 1.10,2013-04-29 05:50:00,
2013-04-29 01:05:00,70.8,61.0,29.88,SSE,149,7.0,10.0,72,0.00,,,0.00,weatherlink.com 1.10,2013-04-29 06:05:00,
2013-04-29 01:20:00,70.8,61.0,29.88,SSW,197,7.0,9.0,72,0.00,,,0.00,weatherlink.com 1.10,2013-04-29 06:20:00,
2013-04-29 01:35:00,70.5,61.0,29.88,SSW,206,7.0,11.0,72,0.00,,,0.00,weatherlink.com 1.10,2013-04-29 06:35:00,
2013-04-29 01:50:00,69.8,61.0,29.88,SSW,210,6.0,12.0,74,0.00,,,0.00,weatherlink.com 1.10,2013-04-29 06:50:00,
2013-04-29 02:05:00,69.0,61.0,29.88,South,188,6.0,9.0,75,0.00,,,0.00,weatherlink.com 1.10,2013-04-29 07:05:00,
2013-04-29 02:20:00,68.1,61.0,29.88,SSW,197,4.0,8.0,77,0.00,,,0.00,weatherlink.com 1.10,2013-04-29 07:20:00,
2013-04-29 02:36:00,67.4,61.0,29.88,SW,214,4.0,5.0,79,0.00,,,0.00,weatherlink.com 1.10,2013-04-29 07:36:00,
2013-04-29 02:51:00,66.7,60.0,29.87,SSE,148,2.0,7.0,80,0.00,,,0.00,weatherlink.com 1.10,2013-04-29 07:51:00,
2013-04-29 03:06:00,66.4,60.0,29.87,SW,215,4.0,5.0,81,0.00,,,0.00,weatherlink.com 1.10,2013-04-29 08:06:00,
2013-04-29 03:21:00,65.9,60.0,29.87,South,191,4.0,6.0,82,0.00,,,0.00,weatherlink.com 1.10,2013-04-29 08:21:00,
2013-04-29 03:36:00,65.4,61.0,29.86,SSW,208,6.0,6.0,84,0.00,,,0.00,weatherlink.com 1.10,2013-04-29 08:36:00,
2013-04-29 03:51:00,65.3,60.0,29.87,SSW,207,4.0,8.0,84,0.00,,,0.00,weatherlink.com 1.10,2013-04-29 08:51:00,
2013-04-29 04:06:00,65.4,61.0,29.88,WSW,256,1.0,3.0,84,0.00,,,0.00,weatherlink.com 1.10,2013-04-29 09:06:00,
2013-04-29 04:21:00,64.9,60.0,29.88,SE,145,3.0,5.0,85,0.00,,,0.00,weatherlink.com 1.10,2013-04-29 09:21:00,
2013-04-29 04:36:00,64.9,60.0,29.88,SW,229,4.0,5.0,85,0.00,,,0.00,weatherlink.com 1.10,2013-04-29 09:36:00,
2013-04-29 04:51:00,64.9,60.0,29.88,SW,225,4.0,4.0,85,0.00,,,0.00,weatherlink.com 1.10,2013-04-29 09:51:00,
2013-04-29 05:06:00,64.8,61.0,29.88,WSW,240,0.0,3.0,86,0.00,,,0.00,weatherlink.com 1.10,2013-04-29 10:06:00,
2013-04-29 05:21:00,64.4,60.0,29.87,SE,135,2.0,3.0,86,0.00,,,0.00,weatherlink.com 1.10,2013-04-29 10:21:00,
2013-04-29 05:36:00,64.0,60.0,29.88,WSW,252,1.0,3.0,87,0.00,,,0.00,weatherlink.com 1.10,2013-04-29 10:36:00,
2013-04-29 05:51:00,63.6,60.0,29.88,South,173,1.0,3.0,87,0.00,,,0.00,weatherlink.com 1.10,2013-04-29 10:51:00,
2013-04-29 06:06:00,63.3,60.0,29.88,SW,236,1.0,2.0,88,0.00,,,0.00,weatherlink.com 1.10,2013-04-29 11:06:00,
2013-04-29 06:21:00,63.0,60.0,29.88,SSE,160,2.0,3.0,89,0.00,,,0.00,weatherlink.com 1.10,2013-04-29 11:21:00,
2013-04-29 06:36:00,62.9,60.0,29.89,SSE,153,0.0,2.0,90,0.00,,,0.00,weatherlink.com 1.10,2013-04-29 11:36:00,
2013-04-29 06:51:00,62.8,60.0,29.89,SSE,162,1.0,4.0,90,0.00,,,0.00,weatherlink.com 1.10,2013-04-29 11:51:00,
2013-04-29 07:06:00,63.4,61.0,29.90,SSE,163,2.0,3.0,90,0.00,,,0.00,weatherlink.com 1.10,2013-04-29 12:06:00,
2013-04-29 07:21:00,63.8,61.0,29.90,South,172,2.0,3.0,89,0.00,,,0.00,weatherlink.com 1.10,2013-04-29 12:21:00,
2013-04-29 07:36:00,64.5,61.0,29.91,South,172,2.0,3.0,88,0.00,,,0.00,weatherlink.com 1.10,2013-04-29 12:36:00,
2013-04-29 07:51:00,64.9,61.0,29.91,South,170,3.0,6.0,88,0.00,,,0.00,weatherlink.com 1.10,2013-04-29 12:51:00,
2013-04-29 08:06:00,65.1,62.0,29.90,South,185,2.0,9.0,89,0.00,,,0.00,weatherlink.com 1.10,2013-04-29 13:06:00,
2013-04-29 08:21:00,66.4,63.0,29.91,SW,217,3.0,6.0,87,0.00,,,0.00,weatherlink.com 1.10,2013-04-29 13:21:00,
2013-04-29 08:36:00,67.7,63.0,29.91,SSW,205,3.0,9.0,85,0.00,,,0.00,weatherlink.com 1.10,2013-04-29 13:36:00,
2013-04-29 08:51:00,68.7,64.0,29.91,WSW,248,4.0,9.0,84,0.00,,,0.00,weatherlink.com 1.10,2013-04-29 13:51:00,
2013-04-29 09:06:00,70.5,64.0,29.91,SW,222,3.0,8.0,81,0.00,,,0.00,weatherlink.com 1.10,2013-04-29 14:06:00,
2013-04-29 09:21:00,71.8,65.0,29.91,SW,224,5.0,9.0,80,0.00,,,0.00,weatherlink.com 1.10,2013-04-29 14:21:00,
2013-04-29 09:36:00,73.3,66.0,29.91,WSW,252,4.0,11.0,77,0.00,,,0.00,weatherlink.com 1.10,2013-04-29 14:36:00,
2013-04-29 09:51:00,74.7,66.0,29.91,SSW,204,8.0,10.0,74,0.00,,,0.00,weatherlink.com 1.10,2013-04-29 14:51:00,
2013-04-29 10:06:00,75.4,66.0,29.91,SSE,166,4.0,10.0,73,0.00,,,0.00,weatherlink.com 1.10,2013-04-29 15:06:00,
2013-04-29 10:21:00,76.3,67.0,29.91,South,191,4.0,10.0,72,0.00,,,0.00,weatherlink.com 1.10,2013-04-29 15:21:00,
2013-04-29 10:37:00,77.4,66.0,29.91,SSW,198,6.0,10.0,69,0.00,,,0.00,weatherlink.com 1.10,2013-04-29 15:37:00,
2013-04-29 10:52:00,77.8,66.0,29.91,WSW,246,4.0,10.0,67,0.00,,,0.00,weatherlink.com 1.10,2013-04-29 15:52:00,
2013-04-29 11:07:00,78.6,67.0,29.91,SSW,207,4.0,9.0,67,0.00,,,0.00,weatherlink.com 1.10,2013-04-29 16:07:00,
2013-04-29 11:22:00,78.8,66.0,29.91,SSW,199,4.0,11.0,64,0.00,,,0.00,weatherlink.com 1.10,2013-04-29 16:22:00,
2013-04-29 11:37:00,79.8,65.0,29.90,SE,138,6.0,12.0,61,0.00,,,0.00,weatherlink.com 1.10,2013-04-29 16:37:00,
2013-04-29 11:52:00,80.3,65.0,29.90,SE,141,4.0,13.0,59,0.00,,,0.00,weatherlink.com 1.10,2013-04-29 16:52:00,
2013-04-29 12:07:00,81.2,64.0,29.90,SSW,195,6.0,12.0,57,0.00,,,0.00,weatherlink.com 1.10,2013-04-29 17:07:00,
2013-04-29 12:22:00,81.9,63.0,29.89,East,93,5.0,12.0,53,0.00,,,0.00,weatherlink.com 1.10,2013-04-29 17:22:00,
2013-04-29 12:37:00,82.3,64.0,29.89,SSE,165,7.0,9.0,54,0.00,,,0.00,weatherlink.com 1.10,2013-04-29 17:37:00,
2013-04-29 12:52:00,83.0,64.0,29.89,SSE,159,5.0,9.0,52,0.00,,,0.00,weatherlink.com 1.10,2013-04-29 17:52:00,
2013-04-29 13:22:00,83.6,62.0,29.88,South,188,8.0,12.0,48,0.00,,,0.00,weatherlink.com 1.10,2013-04-29 18:22:00,
2013-04-29 13:37:00,83.4,62.0,29.87,SSE,155,5.0,14.0,48,0.00,,,0.00,weatherlink.com 1.10,2013-04-29 18:37:00,
2013-04-29 13:52:00,83.9,64.0,29.87,SSE,163,9.0,17.0,51,0.00,,,0.00,weatherlink.com 1.10,2013-04-29 18:52:00,
2013-04-29 14:07:00,83.5,63.0,29.87,SSE,157,5.0,15.0,51,0.00,,,0.00,weatherlink.com 1.10,2013-04-29 19:07:00,
2013-04-29 14:22:00,83.9,62.0,29.86,South,183,12.0,18.0,48,0.00,,,0.00,weatherlink.com 1.10,2013-04-29 19:22:00,
2013-04-29 14:37:00,84.1,60.0,29.86,SE,131,6.0,14.0,44,0.00,,,0.00,weatherlink.com 1.10,2013-04-29 19:37:00,
2013-04-29 14:52:00,84.9,60.0,29.85,SSW,198,9.0,14.0,43,0.00,,,0.00,weatherlink.com 1.10,2013-04-29 19:52:00,
2013-04-29 15:07:00,84.7,59.0,29.84,SSW,205,4.0,16.0,42,0.00,,,0.00,weatherlink.com 1.10,2013-04-29 20:07:00,
2013-04-29 15:22:00,85.0,59.0,29.84,SSW,194,5.0,16.0,42,0.00,,,0.00,weatherlink.com 1.10,2013-04-29 20:22:00,
2013-04-29 15:37:00,84.5,60.0,29.83,SSE,165,5.0,16.0,44,0.00,,,0.00,weatherlink.com 1.10,2013-04-29 20:37:00,
2013-04-29 15:52:00,84.7,60.0,29.82,SW,214,5.0,18.0,43,0.00,,,0.00,weatherlink.com 1.10,2013-04-29 20:52:00,
2013-04-29 16:07:00,84.7,60.0,29.82,SE,142,7.0,14.0,44,0.00,,,0.00,weatherlink.com 1.10,2013-04-29 21:07:00,
2013-04-29 16:22:00,84.9,62.0,29.81,SE,136,6.0,13.0,47,0.00,,,0.00,weatherlink.com 1.10,2013-04-29 21:22:00,
2013-04-29 16:37:00,84.7,62.0,29.80,SSE,160,14.0,17.0,47,0.00,,,0.00,weatherlink.com 1.10,2013-04-29 21:37:00,
2013-04-29 16:52:00,84.6,61.0,29.80,South,177,8.0,20.0,45,0.00,,,0.00,weatherlink.com 1.10,2013-04-29 21:52:00,
2013-04-29 17:07:00,85.1,57.0,29.79,ESE,118,13.0,18.0,39,0.00,,,0.00,weatherlink.com 1.10,2013-04-29 22:07:00,
2013-04-29 17:22:00,84.7,57.0,29.79,SSE,159,10.0,15.0,39,0.00,,,0.00,weatherlink.com 1.10,2013-04-29 22:22:00,
2013-04-29 17:37:00,84.3,56.0,29.79,SE,139,16.0,16.0,38,0.00,,,0.00,weatherlink.com 1.10,2013-04-29 22:37:00,
2013-04-29 17:52:00,84.7,54.0,29.79,SSE,150,7.0,17.0,35,0.00,,,0.00,weatherlink.com 1.10,2013-04-29 22:52:00,
2013-04-29 18:07:00,84.6,57.0,29.79,SE,128,9.0,15.0,39,0.00,,,0.00,weatherlink.com 1.10,2013-04-29 23:07:00,
2013-04-29 18:22:00,83.7,59.0,29.79,ESE,121,8.0,13.0,43,0.00,,,0.00,weatherlink.com 1.10,2013-04-29 23:22:00,
2013-04-29 18:52:00,82.6,58.0,29.78,ESE,114,9.0,14.0,43,0.00,,,0.00,weatherlink.com 1.10,2013-04-29 23:52:00,
2013-04-29 19:07:00,82.1,58.0,29.79,ESE,113,11.0,15.0,44,0.00,,,0.00,weatherlink.com 1.10,2013-04-30 00:07:00,
2013-04-29 19:23:00,81.6,58.0,29.79,SSE,153,6.0,13.0,44,0.00,,,0.00,weatherlink.com 1.10,2013-04-30 00:23:00,
2013-04-29 19:38:00,80.5,59.0,29.79,ESE,119,9.0,14.0,48,0.00,,,0.00,weatherlink.com 1.10,2013-04-30 00:38:00,
2013-04-29 19:53:00,79.6,59.0,29.80,SSE,150,5.0,11.0,50,0.00,,,0.00,weatherlink.com 1.10,2013-04-30 00:53:00,
2013-04-29 20:08:00,78.6,59.0,29.80,SSE,148,4.0,13.0,52,0.00,,,0.00,weatherlink.com 1.10,2013-04-30 01:08:00,
2013-04-29 20:23:00,77.6,60.0,29.80,ESE,121,4.0,9.0,54,0.00,,,0.00,weatherlink.com 1.10,2013-04-30 01:23:00,
2013-04-29 20:38:00,76.7,60.0,29.81,SSE,150,5.0,7.0,56,0.00,,,0.00,weatherlink.com 1.10,2013-04-30 01:38:00,
2013-04-29 20:53:00,76.2,59.0,29.81,SSW,194,2.0,8.0,56,0.00,,,0.00,weatherlink.com 1.10,2013-04-30 01:53:00,
2013-04-29 21:08:00,75.3,59.0,29.82,ESE,117,3.0,5.0,58,0.00,,,0.00,weatherlink.com 1.10,2013-04-30 02:08:00,
2013-04-29 21:23:00,75.0,59.0,29.82,ESE,122,6.0,8.0,58,0.00,,,0.00,weatherlink.com 1.10,2013-04-30 02:23:00,
2013-04-29 21:38:00,74.3,59.0,29.82,SE,128,3.0,8.0,60,0.00,,,0.00,weatherlink.com 1.10,2013-04-30 02:38:00,
2013-04-29 21:53:00,73.8,59.0,29.82,SSE,149,4.0,9.0,61,0.00,,,0.00,weatherlink.com 1.10,2013-04-30 02:53:00,
2013-04-29 22:08:00,73.2,59.0,29.82,SE,128,3.0,8.0,62,0.00,,,0.00,weatherlink.com 1.10,2013-04-30 03:08:00,
2013-04-29 22:23:00,73.0,59.0,29.82,South,181,3.0,9.0,62,0.00,,,0.00,weatherlink.com 1.10,2013-04-30 03:23:00,
2013-04-29 22:39:00,72.6,59.0,29.82,SSE,163,3.0,7.0,63,0.00,,,0.00,weatherlink.com 1.10,2013-04-30 03:39:00,
2013-04-29 22:53:00,71.9,59.0,29.82,SSE,149,2.0,3.0,64,0.00,,,0.00,weatherlink.com 1.10,2013-04-30 03:53:00,
2013-04-29 23:08:00,71.3,59.0,29.83,SSE,151,2.0,4.0,65,0.00,,,0.00,weatherlink.com 1.10,2013-04-30 04:08:00,
2013-04-29 23:23:00,71.9,59.0,29.83,SSE,166,5.0,12.0,64,0.00,,,0.00,weatherlink.com 1.10,2013-04-30 04:23:00,
2013-04-29 23:38:00,71.9,59.0,29.83,South,172,7.0,11.0,64,0.00,,,0.00,weatherlink.com 1.10,2013-04-30 04:38:00,
2013-04-29 23:53:00,71.5,59.0,29.83,SSW,203,4.0,13.0,65,0.00,,,0.00,weatherlink.com 1.10,2013-04-30 04:53:00,